createdAt,value
2022-11-13T00:01:26.630Z,13.49
2022-11-13T00:04:48.099Z,13.60
2022-11-13T00:08:09.382Z,13.47
2022-11-13T00:11:30.456Z,13.58
2022-11-13T00:14:51.596Z,13.57
2022-11-13T00:18:13.107Z,13.54
2022-11-13T00:21:33.859Z,13.49
2022-11-13T00:24:56.930Z,13.40
2022-11-13T00:28:24.942Z,13.42
2022-11-13T00:31:45.732Z,13.37
2022-11-13T00:35:08.259Z,13.42
2022-11-13T00:38:30.679Z,13.27
2022-11-13T00:41:52.467Z,13.48
2022-11-13T00:45:14.241Z,13.52
2022-11-13T00:48:35.552Z,13.47
2022-11-13T00:51:56.546Z,13.45
2022-11-13T00:55:17.516Z,13.67
2022-11-13T00:58:40.712Z,13.52
2022-11-13T01:02:02.151Z,13.50
2022-11-13T01:05:23.214Z,13.60
2022-11-13T01:08:45.354Z,13.67
2022-11-13T01:12:06.961Z,13.67
2022-11-13T01:15:29.442Z,13.67
2022-11-13T01:18:52.097Z,13.58
2022-11-13T01:22:13.153Z,13.54
2022-11-13T01:25:34.104Z,13.44
2022-11-13T01:28:56.639Z,13.54
2022-11-13T01:32:17.738Z,13.68
2022-11-13T01:35:39.257Z,13.59
2022-11-13T01:39:00.442Z,13.67
2022-11-13T01:42:21.607Z,13.65
2022-11-13T01:46:01.128Z,13.58
2022-11-13T01:49:29.293Z,13.55
2022-11-13T01:52:50.953Z,13.52
2022-11-13T01:56:13.838Z,13.58
2022-11-13T01:59:38.077Z,13.52
2022-11-13T02:02:59.326Z,13.53
2022-11-13T02:06:22.148Z,13.43
2022-11-13T02:09:44.761Z,13.49
2022-11-13T02:13:06.385Z,13.54
2022-11-13T02:16:33.155Z,13.52
2022-11-13T02:20:00.424Z,13.60
2022-11-13T02:23:26.088Z,13.44
2022-11-13T02:26:46.997Z,13.47
2022-11-13T02:30:27.615Z,13.65
2022-11-13T02:33:48.863Z,13.59
2022-11-13T02:37:09.706Z,13.55
2022-11-13T02:40:31.547Z,13.50
2022-11-13T02:43:52.855Z,13.47
2022-11-13T02:47:13.758Z,13.66
2022-11-13T02:50:35.395Z,13.57
2022-11-13T02:53:56.995Z,13.53
2022-11-13T02:57:18.205Z,13.60
2022-11-13T03:00:39.675Z,13.53
2022-11-13T03:04:00.851Z,13.45
2022-11-13T03:07:22.028Z,13.42
2022-11-13T03:10:43.415Z,13.51
2022-11-13T03:14:04.870Z,13.39
2022-11-13T03:17:26.115Z,13.49
2022-11-13T03:20:47.252Z,13.50
2022-11-13T03:24:09.287Z,13.55
2022-11-13T03:27:33.058Z,13.50
2022-11-13T03:30:54.303Z,13.49
2022-11-13T03:34:15.622Z,13.43
2022-11-13T03:37:37.679Z,13.43
2022-11-13T03:40:58.742Z,13.54
2022-11-13T03:44:20.143Z,13.52
2022-11-13T03:47:41.521Z,13.45
2022-11-13T03:51:02.429Z,13.36
2022-11-13T03:54:23.646Z,13.21
2022-11-13T03:57:45.812Z,13.33
2022-11-13T04:01:08.031Z,13.36
2022-11-13T04:04:29.938Z,13.23
2022-11-13T04:07:51.340Z,13.33
2022-11-13T04:11:13.661Z,13.31
2022-11-13T04:14:34.622Z,13.28
2022-11-13T04:17:56.173Z,13.34
2022-11-13T04:21:17.565Z,13.34
2022-11-13T04:24:39.776Z,13.46
2022-11-13T04:28:04.171Z,13.38
2022-11-13T04:31:25.385Z,13.34
2022-11-13T04:34:46.499Z,13.33
2022-11-13T04:38:07.292Z,13.38
2022-11-13T04:41:51.230Z,13.44
2022-11-13T04:45:13.739Z,13.41
2022-11-13T04:48:34.934Z,13.54
2022-11-13T04:51:56.198Z,13.53
2022-11-13T04:55:17.130Z,13.63
2022-11-13T04:58:38.349Z,13.67
2022-11-13T05:01:59.882Z,13.67
2022-11-13T05:05:21.218Z,13.73
2022-11-13T05:08:43.470Z,13.77
2022-11-13T05:12:08.347Z,13.69
2022-11-13T05:15:29.671Z,13.76
2022-11-13T05:18:53.690Z,13.62
2022-11-13T05:22:14.690Z,13.63
2022-11-13T05:25:36.057Z,13.66
2022-11-13T05:29:00.785Z,13.66
2022-11-13T05:32:22.059Z,13.59
2022-11-13T05:35:43.269Z,13.66
2022-11-13T05:39:05.770Z,13.58
2022-11-13T05:42:26.820Z,13.56
2022-11-13T05:45:47.971Z,13.60
2022-11-13T05:49:10.822Z,13.45
2022-11-13T05:52:32.015Z,13.33
2022-11-13T05:55:53.626Z,13.42
2022-11-13T05:59:17.197Z,13.41
2022-11-13T06:02:38.754Z,13.37
2022-11-13T06:06:00.304Z,13.48
2022-11-13T06:09:21.631Z,13.45
2022-11-13T06:12:42.553Z,13.43
2022-11-13T06:16:09.086Z,13.43
2022-11-13T06:19:30.662Z,13.44
2022-11-13T06:22:52.638Z,13.49
2022-11-13T06:26:21.091Z,13.51
2022-11-13T06:29:42.394Z,13.46
2022-11-13T06:33:03.739Z,13.42
2022-11-13T06:36:28.001Z,13.38
2022-11-13T06:39:52.244Z,13.21
2022-11-13T06:43:14.085Z,13.16
2022-11-13T06:46:36.090Z,13.36
2022-11-13T06:49:58.412Z,13.42
2022-11-13T06:53:19.498Z,13.45
2022-11-13T06:56:45.474Z,13.53
2022-11-13T07:00:07.987Z,13.48
2022-11-13T07:03:29.694Z,13.34
2022-11-13T07:06:50.777Z,13.43
2022-11-13T07:10:11.665Z,13.48
2022-11-13T07:13:32.677Z,13.47
2022-11-13T07:17:10.334Z,13.45
2022-11-13T07:20:32.391Z,13.49
2022-11-13T07:23:53.586Z,13.41
2022-11-13T07:27:14.840Z,13.48
2022-11-13T07:30:36.281Z,13.40
2022-11-13T07:33:57.619Z,13.30
2022-11-13T07:37:18.686Z,13.38
2022-11-13T07:40:39.638Z,13.39
2022-11-13T07:44:02.565Z,13.31
2022-11-13T07:47:26.351Z,13.40
2022-11-13T07:50:47.761Z,13.40
2022-11-13T07:54:08.796Z,13.43
2022-11-13T07:57:30.501Z,13.52
2022-11-13T08:00:52.257Z,13.70
2022-11-13T08:04:13.169Z,13.95
2022-11-13T08:07:34.961Z,14.04
2022-11-13T08:10:56.108Z,14.03
2022-11-13T08:14:17.064Z,14.27
2022-11-13T08:17:38.421Z,14.33
2022-11-13T08:21:02.117Z,14.31
2022-11-13T08:24:23.802Z,14.47
2022-11-13T08:27:44.662Z,14.34
2022-11-13T08:31:06.344Z,14.49
2022-11-13T08:34:27.946Z,14.55
2022-11-13T08:37:49.379Z,14.30
2022-11-13T08:41:10.387Z,14.39
2022-11-13T08:44:33.330Z,14.19
2022-11-13T08:47:56.302Z,13.88
2022-11-13T08:51:18.782Z,13.96
2022-11-13T08:54:40.465Z,14.08
2022-11-13T08:58:02.565Z,14.21
2022-11-13T09:01:23.526Z,14.13
2022-11-13T09:04:45.586Z,14.22
2022-11-13T09:08:07.927Z,14.38
2022-11-13T09:11:28.882Z,14.49
2022-11-13T09:14:51.283Z,14.49
2022-11-13T09:18:12.215Z,14.08
2022-11-13T09:21:33.623Z,14.38
2022-11-13T09:24:55.128Z,14.54
2022-11-13T09:28:16.189Z,14.45
2022-11-13T09:31:41.288Z,14.18
2022-11-13T09:35:02.828Z,14.56
2022-11-13T09:38:26.090Z,14.73
2022-11-13T09:41:50.457Z,14.63
2022-11-13T09:45:14.836Z,14.55
2022-11-13T09:48:42.316Z,14.80
2022-11-13T09:52:40.680Z,14.83
2022-11-13T09:56:28.611Z,14.99
2022-11-13T10:00:02.048Z,14.92
2022-11-13T10:04:00.026Z,14.92
2022-11-13T10:07:32.150Z,15.03
2022-11-13T10:11:05.509Z,14.93
2022-11-13T10:14:46.430Z,14.75
2022-11-13T10:18:16.525Z,14.74
2022-11-13T10:22:07.549Z,14.74
2022-11-13T10:25:37.119Z,14.64
2022-11-13T10:29:18.942Z,14.50
2022-11-13T10:32:39.901Z,14.53
2022-11-13T10:36:15.667Z,14.61
2022-11-13T10:39:46.346Z,14.77
2022-11-13T10:43:23.150Z,15.00
2022-11-13T10:46:44.013Z,14.90
2022-11-13T10:50:31.904Z,15.02
2022-11-13T10:53:53.818Z,15.01
2022-11-13T10:57:30.532Z,15.00
2022-11-13T11:00:53.055Z,15.12
2022-11-13T11:04:21.082Z,15.19
2022-11-13T11:07:42.576Z,15.15
2022-11-13T11:11:27.900Z,15.01
2022-11-13T11:15:01.641Z,14.93
2022-11-13T11:18:29.280Z,15.03
2022-11-13T11:21:53.141Z,15.09
2022-11-13T11:25:27.621Z,15.14
2022-11-13T11:29:14.962Z,15.33
2022-11-13T11:32:47.935Z,15.52
2022-11-13T11:36:22.351Z,15.49
2022-11-13T11:39:46.914Z,15.50
2022-11-13T11:43:12.387Z,15.50
2022-11-13T11:46:33.538Z,15.66
2022-11-13T11:49:55.312Z,15.43
2022-11-13T11:53:39.720Z,15.43
2022-11-13T11:57:33.455Z,15.38
2022-11-13T12:01:02.322Z,15.61
2022-11-13T12:04:29.200Z,15.82
2022-11-13T12:07:56.119Z,16.09
2022-11-13T12:11:30.982Z,16.14
2022-11-13T12:15:10.458Z,15.85
2022-11-13T12:18:49.629Z,15.85
2022-11-13T12:22:16.591Z,15.77
2022-11-13T12:25:51.648Z,15.80
2022-11-13T12:29:47.688Z,15.39
2022-11-13T12:33:45.869Z,15.26
2022-11-13T12:37:12.816Z,15.28
2022-11-13T12:41:12.574Z,15.28
2022-11-13T12:45:00.936Z,15.43
2022-11-13T12:48:35.879Z,15.62
2022-11-13T12:52:16.129Z,15.68
2022-11-13T12:55:39.527Z,15.67
2022-11-13T12:59:29.779Z,15.45
2022-11-13T13:02:56.868Z,15.58
2022-11-13T13:06:30.452Z,15.47
2022-11-13T13:10:03.691Z,15.46
2022-11-13T13:13:55.226Z,15.48
2022-11-13T13:17:16.014Z,15.15
2022-11-13T13:20:41.327Z,15.05
2022-11-13T13:24:27.435Z,14.88
2022-11-13T13:27:57.754Z,14.90
2022-11-13T13:31:43.066Z,14.83
2022-11-13T13:35:21.525Z,14.66
2022-11-13T13:46:57.391Z,14.08
2022-11-13T13:50:22.689Z,14.34
2022-11-13T13:53:43.903Z,14.34
2022-11-13T13:57:05.060Z,14.53
2022-11-13T14:00:27.120Z,14.45
2022-11-13T14:03:48.819Z,14.45
2022-11-13T14:07:27.847Z,14.45
2022-11-13T14:10:49.435Z,14.46
2022-11-13T14:14:21.993Z,14.51
2022-11-13T14:17:45.745Z,14.35
2022-11-13T14:21:16.271Z,14.38
2022-11-13T14:24:47.735Z,14.50
2022-11-13T14:28:19.737Z,14.58
2022-11-13T14:31:41.122Z,14.54
2022-11-13T14:35:03.627Z,14.60
2022-11-13T14:38:28.050Z,14.61
2022-11-13T14:41:54.709Z,14.53
2022-11-13T14:45:16.590Z,14.32
2022-11-13T14:48:47.047Z,14.23
2022-11-13T14:52:20.064Z,14.23
2022-11-13T14:56:05.733Z,14.02
2022-11-13T14:59:29.425Z,14.11
2022-11-13T15:02:50.631Z,14.15
2022-11-13T15:06:41.055Z,14.16
2022-11-13T15:10:02.292Z,14.18
2022-11-13T15:13:23.850Z,14.18
2022-11-13T15:16:46.622Z,14.28
2022-11-13T15:20:10.493Z,14.27
2022-11-13T15:23:31.681Z,14.22
2022-11-13T15:26:52.991Z,13.95
2022-11-13T15:30:14.463Z,14.10
2022-11-13T15:33:35.683Z,14.23
2022-11-13T15:36:56.696Z,14.19
2022-11-13T15:40:18.962Z,14.25
2022-11-13T15:43:42.662Z,14.13
2022-11-13T15:47:04.435Z,14.17
2022-11-13T15:50:25.734Z,14.24
2022-11-13T15:53:49.718Z,14.30
2022-11-13T15:57:31.261Z,14.18
2022-11-13T16:00:52.214Z,13.85
2022-11-13T16:04:15.086Z,13.74
2022-11-13T16:07:39.865Z,13.79
2022-11-13T16:11:04.254Z,13.91
2022-11-13T16:14:25.599Z,13.87
2022-11-13T16:17:49.518Z,13.89
2022-11-13T16:21:14.433Z,13.93
2022-11-13T16:24:35.495Z,14.39
2022-11-13T16:27:56.621Z,14.31
2022-11-13T16:31:18.070Z,14.20
2022-11-13T16:34:40.005Z,14.05
2022-11-13T16:38:01.213Z,14.08
2022-11-13T16:41:23.878Z,13.90
2022-11-13T16:44:45.132Z,14.15
2022-11-13T16:48:07.308Z,13.98
2022-11-13T16:51:28.502Z,14.11
2022-11-13T16:54:51.618Z,14.32
2022-11-13T16:58:15.224Z,14.10
2022-11-13T17:01:36.725Z,14.21
2022-11-13T17:04:57.761Z,14.18
2022-11-13T17:08:21.886Z,14.14
2022-11-13T17:11:43.589Z,13.97
2022-11-13T17:15:04.846Z,14.02
2022-11-13T17:18:26.518Z,14.16
2022-11-13T17:21:48.305Z,14.28
2022-11-13T17:25:09.679Z,14.33
2022-11-13T17:28:31.277Z,14.16
2022-11-13T17:31:52.555Z,14.17
2022-11-13T17:35:14.229Z,14.11
2022-11-13T17:38:35.292Z,14.06
2022-11-13T17:41:56.918Z,13.83
2022-11-13T17:45:18.211Z,13.93
2022-11-13T17:48:44.270Z,14.13
2022-11-13T17:52:06.084Z,13.99
2022-11-13T17:55:27.775Z,13.96
2022-11-13T17:58:49.436Z,13.91
2022-11-13T18:02:12.977Z,13.94
2022-11-13T18:05:40.516Z,13.95
2022-11-13T18:09:02.245Z,13.75
2022-11-13T18:12:25.522Z,13.91
2022-11-13T18:15:46.811Z,14.13
2022-11-13T18:19:09.917Z,14.01
2022-11-13T18:26:15.721Z,13.97
2022-11-13T18:29:36.386Z,13.98
2022-11-13T18:32:57.311Z,13.97
2022-11-13T18:36:18.399Z,13.99
2022-11-13T18:39:39.228Z,13.81
2022-11-13T18:43:00.019Z,13.72
2022-11-13T18:46:24.116Z,13.60
2022-11-13T18:49:44.916Z,13.81
2022-11-13T18:53:05.742Z,13.54
2022-11-13T18:56:31.617Z,13.68
2022-11-13T18:59:52.791Z,13.77
2022-11-13T19:03:13.721Z,13.70
2022-11-13T19:06:35.473Z,13.77
2022-11-13T19:09:56.199Z,13.88
2022-11-13T19:13:16.880Z,13.76
2022-11-13T19:16:40.038Z,13.68
2022-11-13T19:20:00.985Z,13.76
2022-11-13T19:23:21.858Z,13.78
2022-11-13T19:26:44.173Z,13.82
2022-11-13T19:30:06.966Z,13.68
2022-11-13T19:33:28.653Z,13.74
2022-11-13T19:36:51.486Z,13.62
2022-11-13T19:40:12.421Z,13.46
2022-11-13T19:43:37.913Z,13.55
2022-11-13T19:46:58.870Z,13.54
2022-11-13T19:50:19.870Z,13.47
2022-11-13T19:53:48.029Z,13.47
2022-11-13T19:57:09.253Z,13.48
2022-11-13T20:00:30.144Z,13.58
2022-11-13T20:03:58.842Z,13.47
2022-11-13T20:07:19.952Z,13.46
2022-11-13T20:10:41.179Z,13.51
2022-11-13T20:14:02.282Z,13.38
2022-11-13T20:17:23.540Z,13.47
2022-11-13T20:20:44.973Z,13.42
2022-11-13T20:24:06.046Z,13.48
2022-11-13T20:27:27.157Z,13.33
2022-11-13T20:30:48.390Z,13.43
2022-11-13T20:34:09.482Z,13.39
2022-11-13T20:37:30.550Z,13.39
2022-11-13T20:40:51.401Z,13.38
2022-11-13T20:44:12.586Z,13.50
2022-11-13T20:47:35.293Z,13.41
2022-11-13T20:50:56.308Z,13.38
2022-11-13T20:54:17.046Z,13.39
2022-11-13T20:57:40.949Z,13.18
2022-11-13T21:01:06.559Z,13.28
2022-11-13T21:04:27.526Z,13.30
2022-11-13T21:07:48.612Z,13.31
2022-11-13T21:11:19.095Z,13.31
2022-11-13T21:14:40.014Z,13.21
2022-11-13T21:18:00.920Z,13.19
2022-11-13T21:21:22.642Z,13.24
2022-11-13T21:24:43.898Z,13.18
2022-11-13T21:28:04.924Z,13.23
2022-11-13T21:31:26.681Z,13.08
2022-11-13T21:34:47.530Z,13.23
2022-11-13T21:38:08.385Z,13.28
2022-11-13T21:41:29.209Z,13.19
2022-11-13T21:44:50.274Z,13.16
2022-11-13T21:48:11.245Z,13.16
2022-11-13T21:51:33.712Z,13.24
2022-11-13T21:54:54.385Z,13.12
2022-11-13T21:58:15.390Z,13.25
2022-11-13T22:01:38.621Z,13.16
2022-11-13T22:04:59.882Z,13.30
2022-11-13T22:08:21.141Z,13.39
2022-11-13T22:11:42.280Z,13.11
2022-11-13T22:15:02.766Z,13.17
2022-11-13T22:18:23.500Z,13.16
2022-11-13T22:21:44.431Z,13.15
2022-11-13T22:25:05.966Z,13.20
2022-11-13T22:28:27.317Z,13.15
2022-11-13T22:31:48.451Z,13.13
2022-11-13T22:35:09.775Z,13.20
2022-11-13T22:38:31.084Z,13.01
2022-11-13T22:41:51.957Z,13.02
2022-11-13T22:45:23.156Z,13.06
2022-11-13T22:48:46.283Z,13.04
2022-11-13T22:52:07.350Z,13.11
2022-11-13T22:55:28.194Z,12.94
2022-11-13T22:58:49.541Z,13.00
2022-11-13T23:02:10.613Z,12.89
2022-11-13T23:05:31.712Z,12.98
2022-11-13T23:08:53.069Z,12.93
2022-11-13T23:12:13.903Z,13.06
2022-11-13T23:15:34.647Z,13.05
2022-11-13T23:18:57.308Z,12.98
2022-11-13T23:22:18.162Z,12.89
2022-11-13T23:25:39.115Z,12.84
2022-11-13T23:29:00.138Z,12.88
2022-11-13T23:32:21.102Z,13.07
2022-11-13T23:35:45.225Z,13.01
2022-11-13T23:39:06.324Z,12.99
2022-11-13T23:42:45.695Z,12.76
2022-11-13T23:46:07.228Z,12.83
2022-11-13T23:49:28.311Z,12.79
2022-11-13T23:52:49.754Z,12.89
2022-11-13T23:56:10.358Z,12.87
2022-11-13T23:59:31.710Z,12.94
